sensor_id;sensor_type;location;lat;lon;timestamp;pressure;altitude;pressure_sealevel;temperature;humidity
59272;BME280;45043;51.068;7.026;2023-04-10T00:02:35;101069.25;;;6.85;42.10
59272;BME280;45043;51.068;7.026;2023-04-10T00:05:38;101066.59;;;6.85;41.90
59272;BME280;45043;51.068;7.026;2023-04-10T00:08:42;101064.78;;;6.86;42.27
59272;BME280;45043;51.068;7.026;2023-04-10T00:11:42;101059.59;;;6.76;42.11
59272;BME280;45043;51.068;7.026;2023-04-10T00:14:43;101050.34;;;6.72;42.23
59272;BME280;45043;51.068;7.026;2023-04-10T00:17:44;101049.44;;;6.63;42.60
59272;BME280;45043;51.068;7.026;2023-04-10T00:20:48;101043.34;;;6.63;42.59
59272;BME280;45043;51.068;7.026;2023-04-10T00:23:48;101041.34;;;6.57;42.87
59272;BME280;45043;51.068;7.026;2023-04-10T00:26:48;101038.03;;;6.55;42.63
59272;BME280;45043;51.068;7.026;2023-04-10T00:29:52;101040.38;;;6.58;42.82
59272;BME280;45043;51.068;7.026;2023-04-10T00:32:53;101038.63;;;6.49;42.82
59272;BME280;45043;51.068;7.026;2023-04-10T00:35:53;101034.97;;;6.42;43.57
59272;BME280;45043;51.068;7.026;2023-04-10T00:38:57;101033.31;;;6.41;43.77
59272;BME280;45043;51.068;7.026;2023-04-10T00:41:57;101028.97;;;6.31;44.28
59272;BME280;45043;51.068;7.026;2023-04-10T00:44:59;101018.81;;;6.19;44.23
59272;BME280;45043;51.068;7.026;2023-04-10T00:48:00;101021.47;;;6.19;44.25
59272;BME280;45043;51.068;7.026;2023-04-10T00:51:05;101026.59;;;6.20;44.15
59272;BME280;45043;51.068;7.026;2023-04-10T00:54:06;101016.03;;;6.20;44.27
59272;BME280;45043;51.068;7.026;2023-04-10T00:57:10;101011.59;;;6.21;44.36
59272;BME280;45043;51.068;7.026;2023-04-10T01:00:15;101007.66;;;6.25;44.26
59272;BME280;45043;51.068;7.026;2023-04-10T01:03:17;101006.84;;;6.24;44.13
59272;BME280;45043;51.068;7.026;2023-04-10T01:06:29;101009.47;;;6.24;44.02
59272;BME280;45043;51.068;7.026;2023-04-10T01:09:34;100999.84;;;6.15;45.04
59272;BME280;45043;51.068;7.026;2023-04-10T01:12:51;101002.16;;;6.18;44.56
59272;BME280;45043;51.068;7.026;2023-04-10T01:16:27;100997.75;;;6.01;44.73
59272;BME280;45043;51.068;7.026;2023-04-10T01:29:55;100977.94;;;5.97;44.89
59272;BME280;45043;51.068;7.026;2023-04-10T01:32:59;100972.66;;;5.97;44.87
59272;BME280;45043;51.068;7.026;2023-04-10T01:36:04;100966.75;;;5.95;45.22
59272;BME280;45043;51.068;7.026;2023-04-10T01:39:09;100971.97;;;5.86;45.04
59272;BME280;45043;51.068;7.026;2023-04-10T01:42:10;100963.97;;;5.78;45.71
59272;BME280;45043;51.068;7.026;2023-04-10T01:45:26;100962.25;;;5.69;45.49
59272;BME280;45043;51.068;7.026;2023-04-10T01:48:31;100960.97;;;5.73;45.21
59272;BME280;45043;51.068;7.026;2023-04-10T01:51:33;100959.00;;;5.75;45.10
59272;BME280;45043;51.068;7.026;2023-04-10T01:54:36;100959.69;;;5.77;45.75
59272;BME280;45043;51.068;7.026;2023-04-10T01:57:37;100956.22;;;5.77;45.41
59272;BME280;45043;51.068;7.026;2023-04-10T02:00:41;100952.28;;;5.81;45.01
59272;BME280;45043;51.068;7.026;2023-04-10T02:03:47;100945.88;;;5.83;44.98
59272;BME280;45043;51.068;7.026;2023-04-10T02:07:07;100941.13;;;5.87;45.04
59272;BME280;45043;51.068;7.026;2023-04-10T02:13:21;100938.34;;;5.88;44.49
59272;BME280;45043;51.068;7.026;2023-04-10T02:16:24;100939.31;;;5.87;44.70
59272;BME280;45043;51.068;7.026;2023-04-10T02:19:26;100934.88;;;5.88;44.60
59272;BME280;45043;51.068;7.026;2023-04-10T02:22:27;100926.78;;;5.89;44.58
59272;BME280;45043;51.068;7.026;2023-04-10T02:25:31;100928.47;;;5.90;44.36
59272;BME280;45043;51.068;7.026;2023-04-10T02:28:39;100934.72;;;5.89;44.27
59272;BME280;45043;51.068;7.026;2023-04-10T02:31:40;100933.75;;;5.90;44.48
59272;BME280;45043;51.068;7.026;2023-04-10T02:34:41;100929.44;;;5.89;44.42
59272;BME280;45043;51.068;7.026;2023-04-10T02:37:42;100934.41;;;5.93;44.39
59272;BME280;45043;51.068;7.026;2023-04-10T02:40:47;100932.44;;;5.95;44.03
59272;BME280;45043;51.068;7.026;2023-04-10T02:43:50;100935.41;;;5.92;44.37
59272;BME280;45043;51.068;7.026;2023-04-10T02:46:58;100942.31;;;5.93;43.93
59272;BME280;45043;51.068;7.026;2023-04-10T02:50:02;100940.06;;;5.98;43.93
59272;BME280;45043;51.068;7.026;2023-04-10T02:53:07;100939.38;;;5.96;44.10
59272;BME280;45043;51.068;7.026;2023-04-10T02:56:08;100932.44;;;5.95;44.09
59272;BME280;45043;51.068;7.026;2023-04-10T02:59:13;100938.91;;;6.00;44.26
59272;BME280;45043;51.068;7.026;2023-04-10T03:02:14;100928.00;;;5.95;44.29
59272;BME280;45043;51.068;7.026;2023-04-10T03:05:15;100922.25;;;6.00;44.12
59272;BME280;45043;51.068;7.026;2023-04-10T03:08:28;100917.16;;;5.98;43.75
59272;BME280;45043;51.068;7.026;2023-04-10T03:11:29;100913.16;;;5.94;44.02
59272;BME280;45043;51.068;7.026;2023-04-10T03:14:30;100916.31;;;5.98;44.19
59272;BME280;45043;51.068;7.026;2023-04-10T03:17:30;100912.53;;;6.00;43.87
59272;BME280;45043;51.068;7.026;2023-04-10T03:20:32;100910.88;;;5.99;43.75
59272;BME280;45043;51.068;7.026;2023-04-10T03:23:32;100912.00;;;5.97;43.99
59272;BME280;45043;51.068;7.026;2023-04-10T03:26:33;100912.19;;;5.95;43.91
59272;BME280;45043;51.068;7.026;2023-04-10T03:29:36;100905.25;;;5.94;43.75
59272;BME280;45043;51.068;7.026;2023-04-10T03:32:38;100894.84;;;5.93;43.96
59272;BME280;45043;51.068;7.026;2023-04-10T03:35:41;100890.88;;;5.88;43.76
59272;BME280;45043;51.068;7.026;2023-04-10T03:38:45;100881.97;;;5.89;43.81
59272;BME280;45043;51.068;7.026;2023-04-10T03:41:46;100880.63;;;5.85;44.00
59272;BME280;45043;51.068;7.026;2023-04-10T03:44:47;100868.75;;;5.81;43.95
59272;BME280;45043;51.068;7.026;2023-04-10T03:47:48;100867.19;;;5.71;44.31
59272;BME280;45043;51.068;7.026;2023-04-10T03:50:55;100872.97;;;5.74;44.06
59272;BME280;45043;51.068;7.026;2023-04-10T03:53:56;100872.47;;;5.71;43.95
59272;BME280;45043;51.068;7.026;2023-04-10T03:56:56;100872.47;;;5.71;44.51
59272;BME280;45043;51.068;7.026;2023-04-10T04:00:00;100865.25;;;5.73;44.23
59272;BME280;45043;51.068;7.026;2023-04-10T04:03:09;100849.22;;;5.66;44.43
59272;BME280;45043;51.068;7.026;2023-04-10T04:06:36;100857.72;;;5.60;44.57
59272;BME280;45043;51.068;7.026;2023-04-10T04:10:06;100857.91;;;5.58;44.77
59272;BME280;45043;51.068;7.026;2023-04-10T04:13:34;100857.38;;;5.55;44.23
59272;BME280;45043;51.068;7.026;2023-04-10T04:17:02;100851.81;;;5.58;44.68
59272;BME280;45043;51.068;7.026;2023-04-10T04:20:28;100851.28;;;5.54;44.74
59272;BME280;45043;51.068;7.026;2023-04-10T04:23:47;100846.84;;;5.55;44.54
59272;BME280;45043;51.068;7.026;2023-04-10T04:27:06;100854.22;;;5.51;44.49
59272;BME280;45043;51.068;7.026;2023-04-10T04:30:18;100861.00;;;5.54;44.63
59272;BME280;45043;51.068;7.026;2023-04-10T04:33:41;100859.72;;;5.84;46.46
59272;BME280;45043;51.068;7.026;2023-04-10T04:37:09;100851.63;;;6.20;45.28
59272;BME280;45043;51.068;7.026;2023-04-10T04:40:25;100859.13;;;6.41;45.58
59272;BME280;45043;51.068;7.026;2023-04-10T04:43:37;100855.56;;;6.50;44.73
59272;BME280;45043;51.068;7.026;2023-04-10T04:46:53;100853.56;;;6.44;44.68
59272;BME280;45043;51.068;7.026;2023-04-10T04:50:15;100857.19;;;6.43;44.48
59272;BME280;45043;51.068;7.026;2023-04-10T04:53:34;100849.41;;;6.41;44.37
59272;BME280;45043;51.068;7.026;2023-04-10T04:56:41;100855.19;;;6.45;44.08
59272;BME280;45043;51.068;7.026;2023-04-10T05:00:04;100852.41;;;6.46;44.01
59272;BME280;45043;51.068;7.026;2023-04-10T05:03:28;100849.59;;;6.48;44.37
59272;BME280;45043;51.068;7.026;2023-04-10T05:06:55;100844.13;;;6.41;44.05
59272;BME280;45043;51.068;7.026;2023-04-10T05:10:16;100844.78;;;6.35;44.20
59272;BME280;45043;51.068;7.026;2023-04-10T05:13:33;100850.56;;;6.38;43.71
59272;BME280;45043;51.068;7.026;2023-04-10T05:16:47;100844.78;;;6.35;43.59
59272;BME280;45043;51.068;7.026;2023-04-10T05:20:06;100844.78;;;6.35;43.81
59272;BME280;45043;51.068;7.026;2023-04-10T05:23:35;100842.28;;;6.33;43.50
59272;BME280;45043;51.068;7.026;2023-04-10T05:27:02;100850.88;;;6.35;43.61
59272;BME280;45043;51.068;7.026;2023-04-10T05:30:18;100850.59;;;6.47;43.23
59272;BME280;45043;51.068;7.026;2023-04-10T05:33:41;100848.44;;;6.42;43.99
59272;BME280;45043;51.068;7.026;2023-04-10T05:37:07;100853.22;;;6.47;43.45
59272;BME280;45043;51.068;7.026;2023-04-10T05:40:16;100852.56;;;6.53;43.54
59272;BME280;45043;51.068;7.026;2023-04-10T05:43:35;100856.91;;;6.70;42.85
59272;BME280;45043;51.068;7.026;2023-04-10T05:46:58;100858.41;;;6.73;42.52
59272;BME280;45043;51.068;7.026;2023-04-10T05:50:25;100869.66;;;6.83;42.12
59272;BME280;45043;51.068;7.026;2023-04-10T05:53:41;100868.53;;;6.85;42.48
59272;BME280;45043;51.068;7.026;2023-04-10T05:56:59;100860.47;;;6.87;42.50
59272;BME280;45043;51.068;7.026;2023-04-10T06:00:21;100843.31;;;6.99;42.15
59272;BME280;45043;51.068;7.026;2023-04-10T06:03:42;100848.75;;;6.98;42.63
59272;BME280;45043;51.068;7.026;2023-04-10T06:06:42;100848.25;;;7.02;42.31
59272;BME280;45043;51.068;7.026;2023-04-10T06:09:47;100846.44;;;7.11;41.67
59272;BME280;45043;51.068;7.026;2023-04-10T06:12:47;100846.75;;;7.16;41.84
59272;BME280;45043;51.068;7.026;2023-04-10T06:15:48;100850.59;;;7.14;41.57
59272;BME280;45043;51.068;7.026;2023-04-10T06:18:51;100824.97;;;7.14;41.67
59272;BME280;45043;51.068;7.026;2023-04-10T06:21:53;100830.09;;;7.16;41.27
59272;BME280;45043;51.068;7.026;2023-04-10T06:24:53;100835.72;;;7.21;41.25
59272;BME280;45043;51.068;7.026;2023-04-10T06:27:54;100835.53;;;7.22;41.83
59272;BME280;45043;51.068;7.026;2023-04-10T06:30:55;100833.56;;;7.32;41.22
59272;BME280;45043;51.068;7.026;2023-04-10T06:34:04;100833.06;;;7.53;40.71
59272;BME280;45043;51.068;7.026;2023-04-10T06:37:06;100832.22;;;7.61;40.49
59272;BME280;45043;51.068;7.026;2023-04-10T06:40:09;100828.06;;;7.67;40.67
59272;BME280;45043;51.068;7.026;2023-04-10T06:43:10;100843.63;;;7.62;40.30
59272;BME280;45043;51.068;7.026;2023-04-10T06:46:12;100835.84;;;7.68;40.05
59272;BME280;45043;51.068;7.026;2023-04-10T06:49:16;100850.84;;;7.68;39.96
59272;BME280;45043;51.068;7.026;2023-04-10T06:52:17;100850.22;;;7.66;40.19
59272;BME280;45043;51.068;7.026;2023-04-10T06:55:17;100856.97;;;7.76;40.42
59272;BME280;45043;51.068;7.026;2023-04-10T06:58:36;100844.53;;;7.85;39.60
59272;BME280;45043;51.068;7.026;2023-04-10T07:01:37;100855.97;;;7.77;39.63
59272;BME280;45043;51.068;7.026;2023-04-10T07:04:37;100851.34;;;7.79;39.71
59272;BME280;45043;51.068;7.026;2023-04-10T07:07:38;100841.91;;;7.85;39.65
59272;BME280;45043;51.068;7.026;2023-04-10T07:10:41;100836.91;;;7.90;39.67
59272;BME280;45043;51.068;7.026;2023-04-10T07:13:42;100845.53;;;7.92;39.87
59272;BME280;45043;51.068;7.026;2023-04-10T07:16:42;100836.41;;;8.03;39.84
59272;BME280;45043;51.068;7.026;2023-04-10T07:19:46;100831.38;;;8.16;39.41
59272;BME280;45043;51.068;7.026;2023-04-10T07:22:46;100814.66;;;8.16;39.27
59272;BME280;45043;51.068;7.026;2023-04-10T07:25:46;100807.25;;;8.11;39.48
59272;BME280;45043;51.068;7.026;2023-04-10T07:28:50;100801.28;;;8.17;39.06
59272;BME280;45043;51.068;7.026;2023-04-10T07:31:50;100810.19;;;8.16;39.26
59272;BME280;45043;51.068;7.026;2023-04-10T07:34:51;100795.03;;;8.10;39.22
59272;BME280;45043;51.068;7.026;2023-04-10T07:37:51;100793.34;;;8.17;38.98
59272;BME280;45043;51.068;7.026;2023-04-10T07:40:57;100786.38;;;8.16;38.87
59272;BME280;45043;51.068;7.026;2023-04-10T07:43:57;100785.75;;;8.14;38.87
59272;BME280;45043;51.068;7.026;2023-04-10T07:46:58;100791.50;;;8.18;38.96
59272;BME280;45043;51.068;7.026;2023-04-10T07:50:01;100785.06;;;8.20;38.34
59272;BME280;45043;51.068;7.026;2023-04-10T07:53:02;100783.75;;;8.24;38.33
59272;BME280;45043;51.068;7.026;2023-04-10T07:56:07;100781.47;;;8.44;38.44
59272;BME280;45043;51.068;7.026;2023-04-10T07:59:11;100787.38;;;8.54;37.64
59272;BME280;45043;51.068;7.026;2023-04-10T08:02:11;100784.19;;;8.59;37.93
59272;BME280;45043;51.068;7.026;2023-04-10T08:05:12;100769.53;;;8.71;37.75
59272;BME280;45043;51.068;7.026;2023-04-10T08:08:13;100769.13;;;8.83;37.37
59272;BME280;45043;51.068;7.026;2023-04-10T08:11:33;100766.41;;;8.91;36.91
59272;BME280;45043;51.068;7.026;2023-04-10T08:14:34;100767.34;;;8.98;36.48
59272;BME280;45043;51.068;7.026;2023-04-10T08:17:35;100772.69;;;9.13;36.77
59272;BME280;45043;51.068;7.026;2023-04-10T08:20:38;100770.00;;;9.36;36.50
59272;BME280;45043;51.068;7.026;2023-04-10T08:23:39;100751.59;;;9.34;35.76
59272;BME280;45043;51.068;7.026;2023-04-10T08:26:39;100754.00;;;9.44;36.16
59272;BME280;45043;51.068;7.026;2023-04-10T08:29:40;100756.13;;;9.63;35.77
59272;BME280;45043;51.068;7.026;2023-04-10T08:32:40;100720.16;;;9.61;34.98
59272;BME280;45043;51.068;7.026;2023-04-10T08:35:41;100744.66;;;9.48;34.94
59272;BME280;45043;51.068;7.026;2023-04-10T08:38:44;100744.94;;;9.68;35.04
59272;BME280;45043;51.068;7.026;2023-04-10T08:41:45;100730.69;;;9.84;35.19
59272;BME280;45043;51.068;7.026;2023-04-10T08:44:48;100735.69;;;9.93;34.79
59272;BME280;45043;51.068;7.026;2023-04-10T08:47:49;100729.47;;;9.86;34.59
59272;BME280;45043;51.068;7.026;2023-04-10T08:50:51;100730.03;;;9.82;34.50
59272;BME280;45043;51.068;7.026;2023-04-10T08:53:57;100714.78;;;9.84;34.35
59272;BME280;45043;51.068;7.026;2023-04-10T08:57:01;100714.00;;;9.90;34.30
59272;BME280;45043;51.068;7.026;2023-04-10T09:00:02;100714.44;;;9.93;33.99
59272;BME280;45043;51.068;7.026;2023-04-10T09:03:05;100709.22;;;10.00;33.80
59272;BME280;45043;51.068;7.026;2023-04-10T09:06:07;100703.19;;;10.06;33.91
59272;BME280;45043;51.068;7.026;2023-04-10T09:09:08;100705.72;;;10.14;33.71
59272;BME280;45043;51.068;7.026;2023-04-10T09:12:09;100692.88;;;10.18;33.06
59272;BME280;45043;51.068;7.026;2023-04-10T09:15:10;100691.50;;;10.22;32.96
59272;BME280;45043;51.068;7.026;2023-04-10T09:18:10;100696.88;;;10.29;33.00
59272;BME280;45043;51.068;7.026;2023-04-10T09:21:13;100675.81;;;10.48;32.71
59272;BME280;45043;51.068;7.026;2023-04-10T09:24:15;100673.66;;;10.59;32.67
59272;BME280;45043;51.068;7.026;2023-04-10T09:27:35;100666.59;;;10.66;31.94
59272;BME280;45043;51.068;7.026;2023-04-10T09:30:41;100668.28;;;10.73;31.86
59272;BME280;45043;51.068;7.026;2023-04-10T09:33:42;100665.34;;;10.90;31.90
59272;BME280;45043;51.068;7.026;2023-04-10T09:36:51;100672.78;;;11.01;31.21
59272;BME280;45043;51.068;7.026;2023-04-10T09:39:52;100681.00;;;11.06;31.07
59272;BME280;45043;51.068;7.026;2023-04-10T09:42:55;100684.31;;;11.15;30.37
59272;BME280;45043;51.068;7.026;2023-04-10T09:45:56;100679.81;;;11.15;30.85
59272;BME280;45043;51.068;7.026;2023-04-10T09:48:56;100680.63;;;11.09;29.96
59272;BME280;45043;51.068;7.026;2023-04-10T09:51:58;100666.63;;;11.01;30.21
59272;BME280;45043;51.068;7.026;2023-04-10T09:55:04;100658.34;;;11.10;30.19
59272;BME280;45043;51.068;7.026;2023-04-10T09:58:05;100647.91;;;11.15;29.96
59272;BME280;45043;51.068;7.026;2023-04-10T10:01:06;100639.94;;;11.15;30.12
59272;BME280;45043;51.068;7.026;2023-04-10T10:04:08;100632.63;;;11.24;30.30
59272;BME280;45043;51.068;7.026;2023-04-10T10:07:08;100637.16;;;11.30;30.32
59272;BME280;45043;51.068;7.026;2023-04-10T10:10:10;100637.81;;;11.39;29.84
59272;BME280;45043;51.068;7.026;2023-04-10T10:13:15;100638.25;;;11.49;30.43
59272;BME280;45043;51.068;7.026;2023-04-10T10:16:36;100622.53;;;11.54;29.61
59272;BME280;45043;51.068;7.026;2023-04-10T10:19:45;100622.94;;;11.51;29.50
59272;BME280;45043;51.068;7.026;2023-04-10T10:22:48;100605.53;;;11.55;29.51
59272;BME280;45043;51.068;7.026;2023-04-10T10:25:50;100610.69;;;11.63;29.61
59272;BME280;45043;51.068;7.026;2023-04-10T10:28:52;100593.13;;;11.76;29.94
59272;BME280;45043;51.068;7.026;2023-04-10T10:31:53;100591.53;;;11.81;29.76
59272;BME280;45043;51.068;7.026;2023-04-10T10:34:54;100591.94;;;11.85;29.31
59272;BME280;45043;51.068;7.026;2023-04-10T10:37:57;100577.63;;;11.92;29.57
59272;BME280;45043;51.068;7.026;2023-04-10T10:44:25;100575.59;;;12.08;29.53
59272;BME280;45043;51.068;7.026;2023-04-10T10:47:29;100556.75;;;12.23;29.22
59272;BME280;45043;51.068;7.026;2023-04-10T10:50:51;100543.81;;;12.13;29.18
59272;BME280;45043;51.068;7.026;2023-04-10T10:53:52;100514.16;;;12.09;29.14
59272;BME280;45043;51.068;7.026;2023-04-10T10:56:53;100514.53;;;12.20;28.59
59272;BME280;45043;51.068;7.026;2023-04-10T10:59:53;100506.75;;;12.25;29.00
59272;BME280;45043;51.068;7.026;2023-04-10T11:06:08;100515.69;;;12.63;28.60
59272;BME280;45043;51.068;7.026;2023-04-10T11:13:16;100492.09;;;12.67;27.35
59272;BME280;45043;51.068;7.026;2023-04-10T11:16:21;100485.13;;;12.73;27.44
59272;BME280;45043;51.068;7.026;2023-04-10T11:19:22;100478.97;;;12.79;27.85
59272;BME280;45043;51.068;7.026;2023-04-10T11:22:25;100469.66;;;12.95;27.51
59272;BME280;45043;51.068;7.026;2023-04-10T11:28:49;100453.91;;;12.93;27.63
59272;BME280;45043;51.068;7.026;2023-04-10T11:32:03;100455.06;;;13.04;27.07
59272;BME280;45043;51.068;7.026;2023-04-10T11:35:04;100452.28;;;13.24;27.47
59272;BME280;45043;51.068;7.026;2023-04-10T11:38:16;100451.41;;;13.36;27.45
59272;BME280;45043;51.068;7.026;2023-04-10T11:41:17;100432.16;;;13.28;27.27
59272;BME280;45043;51.068;7.026;2023-04-10T11:44:30;100439.47;;;13.39;27.31
59272;BME280;45043;51.068;7.026;2023-04-10T11:47:31;100422.78;;;13.50;27.23
59272;BME280;45043;51.068;7.026;2023-04-10T11:50:31;100422.78;;;13.50;26.46
59272;BME280;45043;51.068;7.026;2023-04-10T11:53:35;100433.28;;;13.45;26.14
59272;BME280;45043;51.068;7.026;2023-04-10T11:56:37;100435.00;;;13.33;25.66
59272;BME280;45043;51.068;7.026;2023-04-10T11:59:38;100414.22;;;13.10;25.80
59272;BME280;45043;51.068;7.026;2023-04-10T12:02:51;100421.97;;;13.18;26.10
59272;BME280;45043;51.068;7.026;2023-04-10T12:05:52;100410.50;;;13.18;26.04
59272;BME280;45043;51.068;7.026;2023-04-10T12:08:52;100365.28;;;13.23;25.97
59272;BME280;45043;51.068;7.026;2023-04-10T12:14:58;100391.84;;;13.11;25.82
59272;BME280;45043;51.068;7.026;2023-04-10T12:17:59;100391.16;;;13.22;26.19
59272;BME280;45043;51.068;7.026;2023-04-10T12:21:00;100357.53;;;13.21;26.29
59272;BME280;45043;51.068;7.026;2023-04-10T12:24:01;100355.47;;;13.17;26.53
59272;BME280;45043;51.068;7.026;2023-04-10T12:27:02;100371.41;;;13.30;26.15
59272;BME280;45043;51.068;7.026;2023-04-10T12:30:06;100358.84;;;13.37;25.92
59272;BME280;45043;51.068;7.026;2023-04-10T12:33:08;100357.75;;;13.45;25.91
59272;BME280;45043;51.068;7.026;2023-04-10T12:36:22;100359.16;;;13.47;25.92
59272;BME280;45043;51.068;7.026;2023-04-10T12:39:25;100358.81;;;13.62;25.67
59272;BME280;45043;51.068;7.026;2023-04-10T12:42:26;100362.47;;;13.68;25.76
59272;BME280;45043;51.068;7.026;2023-04-10T12:45:43;100347.97;;;13.82;25.36
59272;BME280;45043;51.068;7.026;2023-04-10T12:48:44;100341.59;;;13.83;25.44
59272;BME280;45043;51.068;7.026;2023-04-10T12:51:49;100332.72;;;14.07;25.12
59272;BME280;45043;51.068;7.026;2023-04-10T12:54:50;100349.56;;;14.08;25.07
59272;BME280;45043;51.068;7.026;2023-04-10T12:57:53;100350.34;;;14.27;25.34
59272;BME280;45043;51.068;7.026;2023-04-10T13:00:55;100336.69;;;14.35;24.51
59272;BME280;45043;51.068;7.026;2023-04-10T13:03:57;100344.34;;;14.31;24.44
59272;BME280;45043;51.068;7.026;2023-04-10T13:06:57;100340.47;;;14.27;24.81
59272;BME280;45043;51.068;7.026;2023-04-10T13:09:59;100324.16;;;14.36;24.82
59272;BME280;45043;51.068;7.026;2023-04-10T13:13:05;100294.03;;;14.28;25.10
59272;BME280;45043;51.068;7.026;2023-04-10T13:16:12;100318.38;;;14.20;25.11
59272;BME280;45043;51.068;7.026;2023-04-10T13:19:13;100311.41;;;14.19;25.04
59272;BME280;45043;51.068;7.026;2023-04-10T13:22:14;100296.34;;;14.25;25.18
59272;BME280;45043;51.068;7.026;2023-04-10T13:25:14;100291.00;;;14.25;24.99
59272;BME280;45043;51.068;7.026;2023-04-10T13:28:15;100275.47;;;14.33;25.08
59272;BME280;45043;51.068;7.026;2023-04-10T13:31:21;100275.81;;;14.37;24.89
59272;BME280;45043;51.068;7.026;2023-04-10T13:34:21;100275.38;;;14.40;24.84
59272;BME280;45043;51.068;7.026;2023-04-10T13:37:22;100279.06;;;14.39;24.70
59272;BME280;45043;51.068;7.026;2023-04-10T13:40:23;100257.69;;;14.39;24.82
59272;BME280;45043;51.068;7.026;2023-04-10T13:43:27;100246.09;;;14.45;25.05
59272;BME280;45043;51.068;7.026;2023-04-10T13:46:32;100220.88;;;14.41;25.15
59272;BME280;45043;51.068;7.026;2023-04-10T13:49:32;100228.25;;;14.27;25.25
59272;BME280;45043;51.068;7.026;2023-04-10T13:52:33;100232.34;;;14.30;25.44
59272;BME280;45043;51.068;7.026;2023-04-10T13:55:34;100210.19;;;14.41;25.43
59272;BME280;45043;51.068;7.026;2023-04-10T13:58:37;100211.31;;;14.33;25.68
59272;BME280;45043;51.068;7.026;2023-04-10T14:01:37;100192.03;;;14.31;25.68
59272;BME280;45043;51.068;7.026;2023-04-10T14:04:38;100193.16;;;14.24;25.69
59272;BME280;45043;51.068;7.026;2023-04-10T14:07:38;100188.41;;;14.26;25.98
59272;BME280;45043;51.068;7.026;2023-04-10T14:10:39;100181.16;;;14.45;26.04
59272;BME280;45043;51.068;7.026;2023-04-10T14:13:39;100185.47;;;14.57;25.45
59272;BME280;45043;51.068;7.026;2023-04-10T14:16:40;100194.88;;;14.60;25.72
59272;BME280;45043;51.068;7.026;2023-04-10T14:19:41;100197.25;;;14.68;25.76
59272;BME280;45043;51.068;7.026;2023-04-10T14:22:41;100187.59;;;14.67;25.33
59272;BME280;45043;51.068;7.026;2023-04-10T14:25:45;100164.72;;;14.71;25.71
59272;BME280;45043;51.068;7.026;2023-04-10T14:28:46;100173.16;;;14.56;25.72
59272;BME280;45043;51.068;7.026;2023-04-10T14:31:46;100170.16;;;14.65;26.00
59272;BME280;45043;51.068;7.026;2023-04-10T14:34:47;100166.22;;;14.67;25.96
59272;BME280;45043;51.068;7.026;2023-04-10T14:37:47;100143.91;;;14.73;25.84
59272;BME280;45043;51.068;7.026;2023-04-10T14:40:47;100131.56;;;14.72;25.84
59272;BME280;45043;51.068;7.026;2023-04-10T14:43:49;100119.72;;;14.80;26.03
59272;BME280;45043;51.068;7.026;2023-04-10T14:46:49;100141.00;;;14.87;25.39
59272;BME280;45043;51.068;7.026;2023-04-10T14:49:50;100117.75;;;14.99;25.71
59272;BME280;45043;51.068;7.026;2023-04-10T14:52:51;100106.78;;;15.12;25.61
59272;BME280;45043;51.068;7.026;2023-04-10T14:55:51;100108.91;;;15.50;25.26
59272;BME280;45043;51.068;7.026;2023-04-10T14:58:52;100109.72;;;15.63;24.47
59272;BME280;45043;51.068;7.026;2023-04-10T15:01:52;100113.22;;;15.80;24.23
59272;BME280;45043;51.068;7.026;2023-04-10T15:04:53;100110.03;;;16.12;23.82
59272;BME280;45043;51.068;7.026;2023-04-10T15:07:53;100105.50;;;15.95;24.03
59272;BME280;45043;51.068;7.026;2023-04-10T15:10:54;100120.28;;;15.69;24.04
59272;BME280;45043;51.068;7.026;2023-04-10T15:13:56;100119.16;;;15.53;24.11
59272;BME280;45043;51.068;7.026;2023-04-10T15:16:57;100119.06;;;15.37;23.57
59272;BME280;45043;51.068;7.026;2023-04-10T15:19:57;100115.41;;;15.14;23.43
59272;BME280;45043;51.068;7.026;2023-04-10T15:22:58;100111.72;;;14.92;23.98
59272;BME280;45043;51.068;7.026;2023-04-10T15:25:58;100120.91;;;14.84;24.24
59272;BME280;45043;51.068;7.026;2023-04-10T15:28:59;100100.53;;;14.71;24.86
59272;BME280;45043;51.068;7.026;2023-04-10T15:31:59;100119.22;;;14.59;24.93
59272;BME280;45043;51.068;7.026;2023-04-10T15:35:00;100119.91;;;14.43;24.99
59272;BME280;45043;51.068;7.026;2023-04-10T15:38:02;100109.44;;;14.30;25.46
59272;BME280;45043;51.068;7.026;2023-04-10T15:41:09;100106.16;;;14.28;26.17
59272;BME280;45043;51.068;7.026;2023-04-10T15:44:10;100115.56;;;14.19;26.47
59272;BME280;45043;51.068;7.026;2023-04-10T15:47:10;100100.31;;;14.07;26.65
59272;BME280;45043;51.068;7.026;2023-04-10T15:50:11;100112.50;;;14.03;26.64
59272;BME280;45043;51.068;7.026;2023-04-10T15:53:11;100107.03;;;13.98;26.95
59272;BME280;45043;51.068;7.026;2023-04-10T15:56:12;100083.53;;;13.77;26.44
59272;BME280;45043;51.068;7.026;2023-04-10T15:59:16;100086.78;;;13.60;27.71
59272;BME280;45043;51.068;7.026;2023-04-10T16:02:16;100088.00;;;13.46;27.91
59272;BME280;45043;51.068;7.026;2023-04-10T16:05:17;100074.97;;;13.38;28.41
59272;BME280;45043;51.068;7.026;2023-04-10T16:08:17;100073.06;;;13.27;28.59
59272;BME280;45043;51.068;7.026;2023-04-10T16:11:19;100072.75;;;13.17;28.75
59272;BME280;45043;51.068;7.026;2023-04-10T16:14:19;100077.66;;;13.01;29.53
59272;BME280;45043;51.068;7.026;2023-04-10T16:17:19;100067.44;;;12.98;29.61
59272;BME280;45043;51.068;7.026;2023-04-10T16:20:20;100071.38;;;12.96;29.67
59272;BME280;45043;51.068;7.026;2023-04-10T16:23:21;100078.38;;;12.90;30.19
59272;BME280;45043;51.068;7.026;2023-04-10T16:26:21;100080.03;;;12.91;30.26
59272;BME280;45043;51.068;7.026;2023-04-10T16:29:22;100069.38;;;12.91;30.46
59272;BME280;45043;51.068;7.026;2023-04-10T16:32:22;100067.59;;;12.85;31.12
59272;BME280;45043;51.068;7.026;2023-04-10T16:35:23;100076.78;;;12.89;31.73
59272;BME280;45043;51.068;7.026;2023-04-10T16:38:23;100085.88;;;12.81;32.05
59272;BME280;45043;51.068;7.026;2023-04-10T16:41:24;100094.09;;;12.80;32.51
59272;BME280;45043;51.068;7.026;2023-04-10T16:44:24;100094.94;;;12.74;33.23